Arcadia, Michigan
Current Conditions -  °F | °C
As of 1:16 AM on Wednesday 28 Jan 2015 (Local Time) from KFKS Reporting Station
Clear Clear  
Wind Chill: 12°   Ceiling: Unl
Heat Index: 12°   Visibility: 10mi
Dew Point:   Wind: 0mph
Humidity: 85%   Direction: NA
Pressure: 30.25"   Gusts: NA
Location:  44.49°N, 86.23°W
Report Text: KFKS 280616Z AUTO 00000KT 10SM CLR M11/M13 A3025 RMK AO2 T11121132
Loading
Personal Weather Stations






























Interactive Weather Map New forecast layout! Learn more

10-Day Weather Forecast

Advertisements
Track Severe Weather on mobile